sensor_id;sensor_type;location;lat;lon;timestamp;P1;durP1;ratioP1;P2;durP2;ratioP2
11962;SDS011;62678;52.130;5.584;2023-06-26T00:00:03;14.57;;;13.05;;
11962;SDS011;62678;52.130;5.584;2023-06-26T00:02:32;16.27;;;13.27;;
11962;SDS011;62678;52.130;5.584;2023-06-26T00:04:58;15.02;;;13.05;;
11962;SDS011;62678;52.130;5.584;2023-06-26T00:07:27;13.27;;;11.93;;
11962;SDS011;62678;52.130;5.584;2023-06-26T00:09:56;14.43;;;12.93;;
11962;SDS011;62678;52.130;5.584;2023-06-26T00:12:23;16.42;;;13.52;;
11962;SDS011;62678;52.130;5.584;2023-06-26T00:14:51;14.38;;;12.88;;
11962;SDS011;62678;52.130;5.584;2023-06-26T00:17:18;15.02;;;13.00;;
11962;SDS011;62678;52.130;5.584;2023-06-26T00:19:45;15.07;;;13.40;;
11962;SDS011;62678;52.130;5.584;2023-06-26T00:22:12;14.07;;;12.68;;
11962;SDS011;62678;52.130;5.584;2023-06-26T00:24:38;15.80;;;12.90;;
11962;SDS011;62678;52.130;5.584;2023-06-26T00:27:07;13.73;;;12.32;;
11962;SDS011;62678;52.130;5.584;2023-06-26T00:29:34;14.95;;;13.35;;
11962;SDS011;62678;52.130;5.584;2023-06-26T00:32:01;15.85;;;14.15;;
11962;SDS011;62678;52.130;5.584;2023-06-26T00:34:28;16.83;;;13.40;;
11962;SDS011;62678;52.130;5.584;2023-06-26T00:36:55;16.70;;;13.95;;
11962;SDS011;62678;52.130;5.584;2023-06-26T00:39:22;17.08;;;15.27;;
11962;SDS011;62678;52.130;5.584;2023-06-26T00:41:51;16.63;;;14.95;;
11962;SDS011;62678;52.130;5.584;2023-06-26T00:44:20;18.15;;;14.80;;
11962;SDS011;62678;52.130;5.584;2023-06-26T00:46:47;17.27;;;14.57;;
11962;SDS011;62678;52.130;5.584;2023-06-26T00:49:14;16.42;;;14.82;;
11962;SDS011;62678;52.130;5.584;2023-06-26T00:51:41;16.85;;;15.07;;
11962;SDS011;62678;52.130;5.584;2023-06-26T00:54:09;19.50;;;15.32;;
11962;SDS011;62678;52.130;5.584;2023-06-26T00:56:36;19.85;;;15.00;;
11962;SDS011;62678;52.130;5.584;2023-06-26T00:59:04;15.98;;;14.43;;
11962;SDS011;62678;52.130;5.584;2023-06-26T01:01:32;17.02;;;14.35;;
11962;SDS011;62678;52.130;5.584;2023-06-26T01:03:59;15.65;;;13.82;;
11962;SDS011;62678;52.130;5.584;2023-06-26T01:06:26;15.88;;;14.20;;
11962;SDS011;62678;52.130;5.584;2023-06-26T01:08:57;15.38;;;13.52;;
11962;SDS011;62678;52.130;5.584;2023-06-26T01:11:24;16.38;;;14.65;;
11962;SDS011;62678;52.130;5.584;2023-06-26T01:13:51;15.52;;;13.70;;
11962;SDS011;62678;52.130;5.584;2023-06-26T01:16:19;17.30;;;14.55;;
11962;SDS011;62678;52.130;5.584;2023-06-26T01:18:48;18.85;;;14.85;;
11962;SDS011;62678;52.130;5.584;2023-06-26T01:21:16;16.30;;;14.35;;
11962;SDS011;62678;52.130;5.584;2023-06-26T01:23:47;16.70;;;14.90;;
11962;SDS011;62678;52.130;5.584;2023-06-26T01:26:27;18.23;;;14.90;;
11962;SDS011;62678;52.130;5.584;2023-06-26T01:28:56;15.18;;;13.68;;
11962;SDS011;62678;52.130;5.584;2023-06-26T01:31:24;15.10;;;13.52;;
11962;SDS011;62678;52.130;5.584;2023-06-26T01:33:53;13.10;;;11.43;;
11962;SDS011;62678;52.130;5.584;2023-06-26T01:36:21;14.00;;;11.20;;
11962;SDS011;62678;52.130;5.584;2023-06-26T01:38:48;12.25;;;10.95;;
11962;SDS011;62678;52.130;5.584;2023-06-26T01:41:16;10.90;;;9.80;;
11962;SDS011;62678;52.130;5.584;2023-06-26T01:43:47;13.38;;;10.13;;
11962;SDS011;62678;52.130;5.584;2023-06-26T01:46:27;11.20;;;10.10;;
11962;SDS011;62678;52.130;5.584;2023-06-26T01:49:01;10.77;;;9.57;;
11962;SDS011;62678;52.130;5.584;2023-06-26T01:51:34;12.18;;;9.73;;
11962;SDS011;62678;52.130;5.584;2023-06-26T01:54:05;12.07;;;9.38;;
11962;SDS011;62678;52.130;5.584;2023-06-26T01:56:34;10.15;;;9.02;;
11962;SDS011;62678;52.130;5.584;2023-06-26T01:59:06;10.65;;;9.30;;
11962;SDS011;62678;52.130;5.584;2023-06-26T02:01:35;10.93;;;8.93;;
11962;SDS011;62678;52.130;5.584;2023-06-26T02:04:02;12.25;;;8.82;;
11962;SDS011;62678;52.130;5.584;2023-06-26T02:06:29;10.15;;;8.43;;
11962;SDS011;62678;52.130;5.584;2023-06-26T02:08:56;10.02;;;8.63;;
11962;SDS011;62678;52.130;5.584;2023-06-26T02:11:23;9.20;;;8.15;;
11962;SDS011;62678;52.130;5.584;2023-06-26T02:13:50;8.80;;;7.90;;
11962;SDS011;62678;52.130;5.584;2023-06-26T02:16:18;9.68;;;8.00;;
11962;SDS011;62678;52.130;5.584;2023-06-26T02:18:45;11.45;;;8.30;;
11962;SDS011;62678;52.130;5.584;2023-06-26T02:21:12;10.07;;;8.50;;
11962;SDS011;62678;52.130;5.584;2023-06-26T02:23:39;9.63;;;7.60;;
11962;SDS011;62678;52.130;5.584;2023-06-26T02:26:06;10.07;;;7.85;;
11962;SDS011;62678;52.130;5.584;2023-06-26T02:28:33;10.32;;;7.35;;
11962;SDS011;62678;52.130;5.584;2023-06-26T02:31:00;9.48;;;6.82;;
11962;SDS011;62678;52.130;5.584;2023-06-26T02:33:29;9.00;;;6.60;;
11962;SDS011;62678;52.130;5.584;2023-06-26T02:35:56;8.90;;;6.85;;
11962;SDS011;62678;52.130;5.584;2023-06-26T02:38:22;8.55;;;6.53;;
11962;SDS011;62678;52.130;5.584;2023-06-26T02:40:49;9.45;;;6.68;;
11962;SDS011;62678;52.130;5.584;2023-06-26T02:43:16;7.47;;;5.97;;
11962;SDS011;62678;52.130;5.584;2023-06-26T02:45:43;8.95;;;6.25;;
11962;SDS011;62678;52.130;5.584;2023-06-26T02:48:10;11.20;;;6.70;;
11962;SDS011;62678;52.130;5.584;2023-06-26T02:50:39;8.52;;;6.05;;
11962;SDS011;62678;52.130;5.584;2023-06-26T02:53:06;10.45;;;5.97;;
11962;SDS011;62678;52.130;5.584;2023-06-26T02:55:33;9.48;;;5.78;;
11962;SDS011;62678;52.130;5.584;2023-06-26T02:58:00;11.43;;;6.15;;
11962;SDS011;62678;52.130;5.584;2023-06-26T03:00:27;9.88;;;5.63;;
11962;SDS011;62678;52.130;5.584;2023-06-26T03:02:55;10.48;;;6.05;;
11962;SDS011;62678;52.130;5.584;2023-06-26T03:05:22;11.15;;;6.18;;
11962;SDS011;62678;52.130;5.584;2023-06-26T03:07:51;8.27;;;5.65;;
11962;SDS011;62678;52.130;5.584;2023-06-26T03:10:18;14.98;;;6.32;;
11962;SDS011;62678;52.130;5.584;2023-06-26T03:12:44;11.55;;;6.05;;
11962;SDS011;62678;52.130;5.584;2023-06-26T03:15:11;10.95;;;5.78;;
11962;SDS011;62678;52.130;5.584;2023-06-26T03:17:38;11.52;;;6.10;;
11962;SDS011;62678;52.130;5.584;2023-06-26T03:20:06;11.98;;;6.10;;
11962;SDS011;62678;52.130;5.584;2023-06-26T03:22:35;14.95;;;6.13;;
11962;SDS011;62678;52.130;5.584;2023-06-26T03:25:03;13.32;;;5.45;;
11962;SDS011;62678;52.130;5.584;2023-06-26T03:27:31;12.85;;;5.70;;
11962;SDS011;62678;52.130;5.584;2023-06-26T03:29:58;13.88;;;5.70;;
11962;SDS011;62678;52.130;5.584;2023-06-26T03:32:24;14.52;;;6.00;;
11962;SDS011;62678;52.130;5.584;2023-06-26T03:34:51;12.70;;;6.18;;
11962;SDS011;62678;52.130;5.584;2023-06-26T03:37:19;15.05;;;6.57;;
11962;SDS011;62678;52.130;5.584;2023-06-26T03:39:46;12.88;;;6.22;;
11962;SDS011;62678;52.130;5.584;2023-06-26T03:42:14;14.85;;;6.70;;
11962;SDS011;62678;52.130;5.584;2023-06-26T03:44:41;14.43;;;6.38;;
11962;SDS011;62678;52.130;5.584;2023-06-26T03:47:08;14.55;;;6.63;;
11962;SDS011;62678;52.130;5.584;2023-06-26T03:49:35;15.57;;;6.32;;
11962;SDS011;62678;52.130;5.584;2023-06-26T03:52:01;12.90;;;5.78;;
11962;SDS011;62678;52.130;5.584;2023-06-26T03:54:28;18.10;;;6.15;;
11962;SDS011;62678;52.130;5.584;2023-06-26T03:56:55;14.38;;;6.05;;
11962;SDS011;62678;52.130;5.584;2023-06-26T03:59:24;16.13;;;6.15;;
11962;SDS011;62678;52.130;5.584;2023-06-26T04:01:51;15.13;;;6.00;;
11962;SDS011;62678;52.130;5.584;2023-06-26T04:04:18;13.80;;;5.72;;
11962;SDS011;62678;52.130;5.584;2023-06-26T04:06:45;16.55;;;6.07;;
11962;SDS011;62678;52.130;5.584;2023-06-26T04:09:12;13.48;;;6.03;;
11962;SDS011;62678;52.130;5.584;2023-06-26T04:11:39;14.00;;;6.15;;
11962;SDS011;62678;52.130;5.584;2023-06-26T04:14:06;12.25;;;5.95;;
11962;SDS011;62678;52.130;5.584;2023-06-26T04:16:34;14.05;;;6.57;;
11962;SDS011;62678;52.130;5.584;2023-06-26T04:19:01;14.07;;;6.20;;
11962;SDS011;62678;52.130;5.584;2023-06-26T04:21:30;19.35;;;6.68;;
11962;SDS011;62678;52.130;5.584;2023-06-26T04:23:57;13.82;;;5.63;;
11962;SDS011;62678;52.130;5.584;2023-06-26T04:26:24;15.30;;;6.47;;
11962;SDS011;62678;52.130;5.584;2023-06-26T04:28:52;13.40;;;6.00;;
11962;SDS011;62678;52.130;5.584;2023-06-26T04:31:19;13.13;;;5.55;;
11962;SDS011;62678;52.130;5.584;2023-06-26T04:33:48;10.35;;;5.20;;
11962;SDS011;62678;52.130;5.584;2023-06-26T04:36:16;16.90;;;5.90;;
11962;SDS011;62678;52.130;5.584;2023-06-26T04:38:43;14.40;;;5.82;;
11962;SDS011;62678;52.130;5.584;2023-06-26T04:41:10;15.77;;;5.32;;
11962;SDS011;62678;52.130;5.584;2023-06-26T04:43:37;14.32;;;5.68;;
11962;SDS011;62678;52.130;5.584;2023-06-26T04:46:04;13.52;;;5.70;;
11962;SDS011;62678;52.130;5.584;2023-06-26T04:48:31;14.45;;;5.60;;
11962;SDS011;62678;52.130;5.584;2023-06-26T04:51:00;15.07;;;5.78;;
11962;SDS011;62678;52.130;5.584;2023-06-26T04:53:27;17.73;;;6.07;;
11962;SDS011;62678;52.130;5.584;2023-06-26T04:55:54;13.07;;;5.70;;
11962;SDS011;62678;52.130;5.584;2023-06-26T04:58:21;11.50;;;5.43;;
11962;SDS011;62678;52.130;5.584;2023-06-26T05:00:48;12.85;;;5.18;;
11962;SDS011;62678;52.130;5.584;2023-06-26T05:03:16;11.57;;;5.35;;
11962;SDS011;62678;52.130;5.584;2023-06-26T05:05:44;13.32;;;5.28;;
11962;SDS011;62678;52.130;5.584;2023-06-26T05:08:16;12.65;;;5.05;;
11962;SDS011;62678;52.130;5.584;2023-06-26T05:10:44;18.27;;;5.60;;
11962;SDS011;62678;52.130;5.584;2023-06-26T05:13:11;12.45;;;5.13;;
11962;SDS011;62678;52.130;5.584;2023-06-26T05:15:40;12.50;;;4.95;;
11962;SDS011;62678;52.130;5.584;2023-06-26T05:18:07;12.60;;;4.95;;
11962;SDS011;62678;52.130;5.584;2023-06-26T05:20:34;14.85;;;5.70;;
11962;SDS011;62678;52.130;5.584;2023-06-26T05:23:02;13.35;;;5.18;;
11962;SDS011;62678;52.130;5.584;2023-06-26T05:25:31;12.98;;;5.40;;
11962;SDS011;62678;52.130;5.584;2023-06-26T05:27:59;14.00;;;4.88;;
11962;SDS011;62678;52.130;5.584;2023-06-26T05:30:27;14.38;;;5.72;;
11962;SDS011;62678;52.130;5.584;2023-06-26T05:32:56;11.05;;;5.20;;
11962;SDS011;62678;52.130;5.584;2023-06-26T05:35:25;15.20;;;5.45;;
11962;SDS011;62678;52.130;5.584;2023-06-26T05:37:56;10.05;;;4.38;;
11962;SDS011;62678;52.130;5.584;2023-06-26T05:40:24;10.98;;;4.78;;
11962;SDS011;62678;52.130;5.584;2023-06-26T05:42:53;9.60;;;4.68;;
11962;SDS011;62678;52.130;5.584;2023-06-26T05:45:20;10.77;;;4.82;;
11962;SDS011;62678;52.130;5.584;2023-06-26T05:47:47;9.75;;;4.35;;
11962;SDS011;62678;52.130;5.584;2023-06-26T05:50:16;9.60;;;3.85;;
11962;SDS011;62678;52.130;5.584;2023-06-26T05:52:46;9.60;;;4.35;;
11962;SDS011;62678;52.130;5.584;2023-06-26T05:55:13;8.88;;;3.70;;
11962;SDS011;62678;52.130;5.584;2023-06-26T05:57:41;10.00;;;3.92;;
11962;SDS011;62678;52.130;5.584;2023-06-26T06:00:10;6.72;;;3.70;;
11962;SDS011;62678;52.130;5.584;2023-06-26T06:02:38;8.75;;;3.90;;
11962;SDS011;62678;52.130;5.584;2023-06-26T06:05:06;8.63;;;3.60;;
11962;SDS011;62678;52.130;5.584;2023-06-26T06:07:33;6.00;;;3.92;;
11962;SDS011;62678;52.130;5.584;2023-06-26T06:10:01;7.05;;;3.50;;
11962;SDS011;62678;52.130;5.584;2023-06-26T06:12:29;6.63;;;3.30;;
11962;SDS011;62678;52.130;5.584;2023-06-26T06:14:56;12.75;;;3.40;;
11962;SDS011;62678;52.130;5.584;2023-06-26T06:17:25;7.35;;;3.00;;
11962;SDS011;62678;52.130;5.584;2023-06-26T06:19:52;6.32;;;2.85;;
11962;SDS011;62678;52.130;5.584;2023-06-26T06:22:19;7.15;;;2.90;;
11962;SDS011;62678;52.130;5.584;2023-06-26T06:24:46;8.50;;;3.00;;
11962;SDS011;62678;52.130;5.584;2023-06-26T06:27:14;6.97;;;2.95;;
11962;SDS011;62678;52.130;5.584;2023-06-26T06:29:42;6.35;;;3.00;;
11962;SDS011;62678;52.130;5.584;2023-06-26T06:32:09;7.75;;;2.67;;
11962;SDS011;62678;52.130;5.584;2023-06-26T06:34:37;5.05;;;2.33;;
11962;SDS011;62678;52.130;5.584;2023-06-26T06:37:04;7.25;;;2.58;;
11962;SDS011;62678;52.130;5.584;2023-06-26T06:39:31;3.63;;;2.40;;
11962;SDS011;62678;52.130;5.584;2023-06-26T06:42:00;6.70;;;2.55;;
11962;SDS011;62678;52.130;5.584;2023-06-26T06:44:27;4.80;;;2.63;;
11962;SDS011;62678;52.130;5.584;2023-06-26T06:46:55;5.60;;;2.60;;
11962;SDS011;62678;52.130;5.584;2023-06-26T06:49:22;6.90;;;2.72;;
11962;SDS011;62678;52.130;5.584;2023-06-26T06:51:51;5.90;;;2.92;;
11962;SDS011;62678;52.130;5.584;2023-06-26T06:54:18;6.10;;;2.63;;
11962;SDS011;62678;52.130;5.584;2023-06-26T06:56:46;6.15;;;2.70;;
11962;SDS011;62678;52.130;5.584;2023-06-26T06:59:13;5.65;;;2.58;;
11962;SDS011;62678;52.130;5.584;2023-06-26T07:01:43;5.18;;;2.67;;
11962;SDS011;62678;52.130;5.584;2023-06-26T07:04:12;7.22;;;2.70;;
11962;SDS011;62678;52.130;5.584;2023-06-26T07:06:40;5.32;;;2.50;;
11962;SDS011;62678;52.130;5.584;2023-06-26T07:09:08;5.38;;;2.80;;
11962;SDS011;62678;52.130;5.584;2023-06-26T07:11:35;7.90;;;3.00;;
11962;SDS011;62678;52.130;5.584;2023-06-26T07:14:02;4.50;;;2.63;;
11962;SDS011;62678;52.130;5.584;2023-06-26T07:16:30;5.32;;;2.50;;
11962;SDS011;62678;52.130;5.584;2023-06-26T07:18:57;8.05;;;2.70;;
11962;SDS011;62678;52.130;5.584;2023-06-26T07:21:24;4.88;;;2.58;;
11962;SDS011;62678;52.130;5.584;2023-06-26T07:23:51;5.28;;;2.67;;
11962;SDS011;62678;52.130;5.584;2023-06-26T07:26:20;4.75;;;2.85;;
11962;SDS011;62678;52.130;5.584;2023-06-26T07:28:51;6.07;;;2.97;;
11962;SDS011;62678;52.130;5.584;2023-06-26T07:31:19;5.03;;;2.58;;
11962;SDS011;62678;52.130;5.584;2023-06-26T07:33:46;4.97;;;2.42;;
11962;SDS011;62678;52.130;5.584;2023-06-26T07:36:13;8.27;;;2.90;;
11962;SDS011;62678;52.130;5.584;2023-06-26T07:38:41;5.45;;;2.80;;
11962;SDS011;62678;52.130;5.584;2023-06-26T07:41:08;4.88;;;3.00;;
11962;SDS011;62678;52.130;5.584;2023-06-26T07:43:36;4.70;;;2.97;;
11962;SDS011;62678;52.130;5.584;2023-06-26T07:46:03;5.03;;;2.42;;
11962;SDS011;62678;52.130;5.584;2023-06-26T07:48:30;7.93;;;2.90;;
11962;SDS011;62678;52.130;5.584;2023-06-26T07:50:57;6.07;;;2.95;;
11962;SDS011;62678;52.130;5.584;2023-06-26T07:53:24;9.50;;;2.83;;
11962;SDS011;62678;52.130;5.584;2023-06-26T07:55:51;4.97;;;3.20;;
11962;SDS011;62678;52.130;5.584;2023-06-26T07:58:20;7.35;;;3.47;;
11962;SDS011;62678;52.130;5.584;2023-06-26T08:00:48;4.88;;;3.58;;
11962;SDS011;62678;52.130;5.584;2023-06-26T08:03:15;5.15;;;3.30;;
11962;SDS011;62678;52.130;5.584;2023-06-26T08:05:42;6.22;;;2.85;;
11962;SDS011;62678;52.130;5.584;2023-06-26T08:08:09;6.22;;;2.80;;
11962;SDS011;62678;52.130;5.584;2023-06-26T08:10:36;9.50;;;3.05;;
11962;SDS011;62678;52.130;5.584;2023-06-26T08:13:03;4.60;;;3.30;;
11962;SDS011;62678;52.130;5.584;2023-06-26T08:15:30;9.85;;;3.08;;
11962;SDS011;62678;52.130;5.584;2023-06-26T08:17:59;6.28;;;3.03;;
11962;SDS011;62678;52.130;5.584;2023-06-26T08:20:26;7.90;;;3.33;;
11962;SDS011;62678;52.130;5.584;2023-06-26T08:22:53;9.18;;;3.10;;
11962;SDS011;62678;52.130;5.584;2023-06-26T08:25:20;3.92;;;2.60;;
11962;SDS011;62678;52.130;5.584;2023-06-26T08:27:47;7.68;;;2.88;;
11962;SDS011;62678;52.130;5.584;2023-06-26T08:30:17;4.72;;;3.17;;
11962;SDS011;62678;52.130;5.584;2023-06-26T08:32:44;8.20;;;2.97;;
11962;SDS011;62678;52.130;5.584;2023-06-26T08:35:12;6.50;;;3.28;;
11962;SDS011;62678;52.130;5.584;2023-06-26T08:37:42;8.10;;;3.10;;
11962;SDS011;62678;52.130;5.584;2023-06-26T08:40:09;6.40;;;2.70;;
11962;SDS011;62678;52.130;5.584;2023-06-26T08:42:37;4.22;;;2.40;;
11962;SDS011;62678;52.130;5.584;2023-06-26T08:45:04;5.80;;;2.70;;
11962;SDS011;62678;52.130;5.584;2023-06-26T08:47:31;5.20;;;2.60;;
11962;SDS011;62678;52.130;5.584;2023-06-26T08:50:03;4.90;;;2.55;;
11962;SDS011;62678;52.130;5.584;2023-06-26T08:52:36;6.65;;;2.20;;
11962;SDS011;62678;52.130;5.584;2023-06-26T08:55:06;6.72;;;1.92;;
11962;SDS011;62678;52.130;5.584;2023-06-26T08:57:36;4.57;;;1.85;;
11962;SDS011;62678;52.130;5.584;2023-06-26T09:00:04;4.63;;;1.33;;
11962;SDS011;62678;52.130;5.584;2023-06-26T09:02:33;4.25;;;1.45;;
11962;SDS011;62678;52.130;5.584;2023-06-26T09:05:01;5.20;;;1.23;;
11962;SDS011;62678;52.130;5.584;2023-06-26T09:07:28;3.60;;;1.30;;
11962;SDS011;62678;52.130;5.584;2023-06-26T09:09:57;4.38;;;1.17;;
11962;SDS011;62678;52.130;5.584;2023-06-26T09:12:26;3.35;;;1.13;;
11962;SDS011;62678;52.130;5.584;2023-06-26T09:14:53;8.15;;;1.45;;
11962;SDS011;62678;52.130;5.584;2023-06-26T09:17:24;5.43;;;1.40;;
11962;SDS011;62678;52.130;5.584;2023-06-26T09:19:52;5.03;;;1.58;;
11962;SDS011;62678;52.130;5.584;2023-06-26T09:22:19;3.40;;;1.13;;
11962;SDS011;62678;52.130;5.584;2023-06-26T09:24:46;4.47;;;1.20;;
11962;SDS011;62678;52.130;5.584;2023-06-26T09:27:15;3.28;;;1.10;;
11962;SDS011;62678;52.130;5.584;2023-06-26T09:29:42;3.78;;;1.55;;
11962;SDS011;62678;52.130;5.584;2023-06-26T09:32:12;3.47;;;1.02;;
11962;SDS011;62678;52.130;5.584;2023-06-26T09:34:41;4.25;;;1.20;;
11962;SDS011;62678;52.130;5.584;2023-06-26T09:37:11;3.72;;;1.30;;
11962;SDS011;62678;52.130;5.584;2023-06-26T09:39:38;4.07;;;1.27;;
11962;SDS011;62678;52.130;5.584;2023-06-26T09:42:05;4.53;;;1.50;;
11962;SDS011;62678;52.130;5.584;2023-06-26T09:44:34;3.03;;;1.50;;
11962;SDS011;62678;52.130;5.584;2023-06-26T09:47:01;3.67;;;1.50;;
11962;SDS011;62678;52.130;5.584;2023-06-26T09:49:29;3.20;;;1.30;;
11962;SDS011;62678;52.130;5.584;2023-06-26T09:51:57;4.40;;;1.10;;
11962;SDS011;62678;52.130;5.584;2023-06-26T09:54:28;2.88;;;1.40;;
11962;SDS011;62678;52.130;5.584;2023-06-26T09:57:06;5.38;;;1.27;;
11962;SDS011;62678;52.130;5.584;2023-06-26T09:59:35;2.65;;;1.27;;
11962;SDS011;62678;52.130;5.584;2023-06-26T10:02:03;3.83;;;1.13;;
11962;SDS011;62678;52.130;5.584;2023-06-26T10:04:30;5.53;;;1.52;;
11962;SDS011;62678;52.130;5.584;2023-06-26T10:06:58;4.22;;;1.20;;
11962;SDS011;62678;52.130;5.584;2023-06-26T10:09:27;5.53;;;1.30;;
11962;SDS011;62678;52.130;5.584;2023-06-26T10:11:55;6.25;;;1.35;;
11962;SDS011;62678;52.130;5.584;2023-06-26T10:14:25;3.20;;;1.10;;
11962;SDS011;62678;52.130;5.584;2023-06-26T10:16:56;2.42;;;1.20;;
11962;SDS011;62678;52.130;5.584;2023-06-26T10:19:26;7.22;;;1.50;;
11962;SDS011;62678;52.130;5.584;2023-06-26T10:21:54;3.97;;;1.38;;
11962;SDS011;62678;52.130;5.584;2023-06-26T10:24:22;5.88;;;1.63;;
11962;SDS011;62678;52.130;5.584;2023-06-26T10:26:55;4.45;;;1.25;;
11962;SDS011;62678;52.130;5.584;2023-06-26T10:29:25;3.03;;;1.20;;
11962;SDS011;62678;52.130;5.584;2023-06-26T10:31:55;1.85;;;1.20;;
11962;SDS011;62678;52.130;5.584;2023-06-26T10:34:25;4.28;;;0.90;;
11962;SDS011;62678;52.130;5.584;2023-06-26T10:36:58;2.78;;;1.05;;
11962;SDS011;62678;52.130;5.584;2023-06-26T10:39:33;1.40;;;1.05;;
11962;SDS011;62678;52.130;5.584;2023-06-26T10:42:15;5.80;;;1.25;;
11962;SDS011;62678;52.130;5.584;2023-06-26T10:44:42;5.10;;;1.30;;
11962;SDS011;62678;52.130;5.584;2023-06-26T10:50:18;7.30;;;1.17;;
11962;SDS011;62678;52.130;5.584;2023-06-26T10:53:06;2.67;;;1.30;;
11962;SDS011;62678;52.130;5.584;2023-06-26T10:55:41;2.35;;;1.13;;
11962;SDS011;62678;52.130;5.584;2023-06-26T10:58:26;4.43;;;1.48;;
11962;SDS011;62678;52.130;5.584;2023-06-26T11:03:49;3.03;;;1.23;;
11962;SDS011;62678;52.130;5.584;2023-06-26T11:06:38;3.65;;;1.10;;
11962;SDS011;62678;52.130;5.584;2023-06-26T11:09:07;2.13;;;1.00;;
11962;SDS011;62678;52.130;5.584;2023-06-26T11:11:56;3.30;;;1.27;;
11962;SDS011;62678;52.130;5.584;2023-06-26T11:14:33;5.50;;;1.20;;
11962;SDS011;62678;52.130;5.584;2023-06-26T11:17:04;2.45;;;1.30;;
11962;SDS011;62678;52.130;5.584;2023-06-26T11:19:32;4.47;;;1.20;;
11962;SDS011;62678;52.130;5.584;2023-06-26T11:22:01;3.28;;;1.10;;
11962;SDS011;62678;52.130;5.584;2023-06-26T11:24:30;4.05;;;1.08;;
11962;SDS011;62678;52.130;5.584;2023-06-26T11:27:00;2.03;;;1.02;;
11962;SDS011;62678;52.130;5.584;2023-06-26T11:29:29;4.60;;;1.20;;
11962;SDS011;62678;52.130;5.584;2023-06-26T11:32:03;2.47;;;1.17;;
11962;SDS011;62678;52.130;5.584;2023-06-26T11:34:32;4.50;;;1.58;;
11962;SDS011;62678;52.130;5.584;2023-06-26T11:37:01;4.18;;;1.48;;
11962;SDS011;62678;52.130;5.584;2023-06-26T11:39:28;5.28;;;1.60;;
11962;SDS011;62678;52.130;5.584;2023-06-26T11:41:56;2.72;;;1.33;;
11962;SDS011;62678;52.130;5.584;2023-06-26T11:44:23;2.13;;;1.05;;
11962;SDS011;62678;52.130;5.584;2023-06-26T11:46:53;3.63;;;1.08;;
11962;SDS011;62678;52.130;5.584;2023-06-26T11:49:21;3.53;;;0.93;;
11962;SDS011;62678;52.130;5.584;2023-06-26T11:51:51;3.33;;;1.20;;
11962;SDS011;62678;52.130;5.584;2023-06-26T11:54:24;2.47;;;1.00;;
11962;SDS011;62678;52.130;5.584;2023-06-26T11:56:55;3.65;;;1.05;;
11962;SDS011;62678;52.130;5.584;2023-06-26T11:59:23;3.92;;;1.00;;
11962;SDS011;62678;52.130;5.584;2023-06-26T12:01:52;5.07;;;1.10;;
11962;SDS011;62678;52.130;5.584;2023-06-26T12:04:19;5.03;;;0.95;;
11962;SDS011;62678;52.130;5.584;2023-06-26T12:06:47;4.28;;;0.80;;
11962;SDS011;62678;52.130;5.584;2023-06-26T12:09:17;1.75;;;1.00;;
11962;SDS011;62678;52.130;5.584;2023-06-26T12:11:47;3.05;;;0.90;;
11962;SDS011;62678;52.130;5.584;2023-06-26T12:14:17;1.20;;;0.60;;
11962;SDS011;62678;52.130;5.584;2023-06-26T12:16:46;4.32;;;1.08;;
11962;SDS011;62678;52.130;5.584;2023-06-26T12:19:13;2.88;;;1.02;;
11962;SDS011;62678;52.130;5.584;2023-06-26T12:21:44;1.83;;;0.90;;
11962;SDS011;62678;52.130;5.584;2023-06-26T12:24:18;4.40;;;1.00;;
11962;SDS011;62678;52.130;5.584;2023-06-26T12:26:48;2.55;;;0.98;;
11962;SDS011;62678;52.130;5.584;2023-06-26T12:29:18;3.17;;;0.70;;
11962;SDS011;62678;52.130;5.584;2023-06-26T12:31:48;3.67;;;1.00;;
11962;SDS011;62678;52.130;5.584;2023-06-26T12:34:18;4.30;;;1.02;;
11962;SDS011;62678;52.130;5.584;2023-06-26T12:36:47;1.95;;;0.80;;
11962;SDS011;62678;52.130;5.584;2023-06-26T12:39:15;3.70;;;0.88;;
11962;SDS011;62678;52.130;5.584;2023-06-26T12:41:48;2.65;;;0.90;;
11962;SDS011;62678;52.130;5.584;2023-06-26T12:44:21;3.65;;;0.90;;
11962;SDS011;62678;52.130;5.584;2023-06-26T12:46:53;3.25;;;1.05;;
11962;SDS011;62678;52.130;5.584;2023-06-26T12:49:20;3.13;;;0.93;;
11962;SDS011;62678;52.130;5.584;2023-06-26T12:51:56;2.40;;;0.60;;
11962;SDS011;62678;52.130;5.584;2023-06-26T12:54:23;5.90;;;0.85;;
11962;SDS011;62678;52.130;5.584;2023-06-26T12:56:51;2.72;;;0.70;;
11962;SDS011;62678;52.130;5.584;2023-06-26T12:59:19;1.08;;;0.60;;
11962;SDS011;62678;52.130;5.584;2023-06-26T13:01:46;2.75;;;0.80;;
11962;SDS011;62678;52.130;5.584;2023-06-26T13:04:13;2.30;;;0.70;;
11962;SDS011;62678;52.130;5.584;2023-06-26T13:06:40;2.60;;;0.70;;
11962;SDS011;62678;52.130;5.584;2023-06-26T13:09:07;1.15;;;0.70;;
11962;SDS011;62678;52.130;5.584;2023-06-26T13:11:35;2.20;;;0.90;;
11962;SDS011;62678;52.130;5.584;2023-06-26T13:14:05;4.45;;;0.70;;
11962;SDS011;62678;52.130;5.584;2023-06-26T13:16:31;2.30;;;0.85;;
11962;SDS011;62678;52.130;5.584;2023-06-26T13:18:58;2.55;;;0.80;;
11962;SDS011;62678;52.130;5.584;2023-06-26T13:21:26;4.00;;;1.15;;
11962;SDS011;62678;52.130;5.584;2023-06-26T13:23:54;1.85;;;0.80;;
11962;SDS011;62678;52.130;5.584;2023-06-26T13:26:21;1.63;;;0.90;;
11962;SDS011;62678;52.130;5.584;2023-06-26T13:28:48;1.45;;;0.70;;
11962;SDS011;62678;52.130;5.584;2023-06-26T13:31:17;4.63;;;1.05;;
11962;SDS011;62678;52.130;5.584;2023-06-26T13:33:44;2.40;;;0.80;;
11962;SDS011;62678;52.130;5.584;2023-06-26T13:36:13;2.95;;;0.68;;
11962;SDS011;62678;52.130;5.584;2023-06-26T13:38:40;2.47;;;1.00;;
11962;SDS011;62678;52.130;5.584;2023-06-26T13:41:07;2.92;;;0.75;;
11962;SDS011;62678;52.130;5.584;2023-06-26T13:43:34;2.63;;;1.00;;
11962;SDS011;62678;52.130;5.584;2023-06-26T13:46:01;2.53;;;0.85;;
11962;SDS011;62678;52.130;5.584;2023-06-26T13:48:30;3.67;;;0.85;;
11962;SDS011;62678;52.130;5.584;2023-06-26T13:50:58;3.53;;;0.77;;
11962;SDS011;62678;52.130;5.584;2023-06-26T13:53:25;5.57;;;1.17;;
11962;SDS011;62678;52.130;5.584;2023-06-26T13:55:52;2.63;;;0.73;;
11962;SDS011;62678;52.130;5.584;2023-06-26T13:58:19;3.97;;;1.10;;
11962;SDS011;62678;52.130;5.584;2023-06-26T14:00:47;2.90;;;0.80;;
11962;SDS011;62678;52.130;5.584;2023-06-26T14:03:15;3.70;;;0.93;;
11962;SDS011;62678;52.130;5.584;2023-06-26T14:05:44;3.38;;;0.80;;
11962;SDS011;62678;52.130;5.584;2023-06-26T14:08:11;2.40;;;0.70;;
11962;SDS011;62678;52.130;5.584;2023-06-26T14:10:39;1.23;;;0.60;;
11962;SDS011;62678;52.130;5.584;2023-06-26T14:13:05;2.83;;;0.73;;
11962;SDS011;62678;52.130;5.584;2023-06-26T14:15:34;2.83;;;0.80;;
11962;SDS011;62678;52.130;5.584;2023-06-26T14:18:01;1.50;;;0.80;;
11962;SDS011;62678;52.130;5.584;2023-06-26T14:20:29;3.60;;;0.80;;
11962;SDS011;62678;52.130;5.584;2023-06-26T14:22:59;2.88;;;0.80;;
11962;SDS011;62678;52.130;5.584;2023-06-26T14:25:26;2.30;;;0.95;;
11962;SDS011;62678;52.130;5.584;2023-06-26T14:27:53;4.55;;;0.82;;
11962;SDS011;62678;52.130;5.584;2023-06-26T14:30:21;1.95;;;0.90;;
11962;SDS011;62678;52.130;5.584;2023-06-26T14:32:48;2.45;;;0.80;;
11962;SDS011;62678;52.130;5.584;2023-06-26T14:35:15;4.13;;;1.00;;
11962;SDS011;62678;52.130;5.584;2023-06-26T14:37:42;1.42;;;0.70;;
11962;SDS011;62678;52.130;5.584;2023-06-26T14:40:12;3.85;;;0.80;;
11962;SDS011;62678;52.130;5.584;2023-06-26T14:42:40;2.42;;;0.77;;
11962;SDS011;62678;52.130;5.584;2023-06-26T14:45:08;3.03;;;0.90;;
11962;SDS011;62678;52.130;5.584;2023-06-26T14:47:36;2.67;;;1.00;;
11962;SDS011;62678;52.130;5.584;2023-06-26T14:50:03;4.43;;;1.45;;
11962;SDS011;62678;52.130;5.584;2023-06-26T14:52:31;3.88;;;0.80;;